createdAt,value
2019-01-20T00:01:34.601Z,81.97
2019-01-20T00:04:08.253Z,81.96
2019-01-20T00:06:41.569Z,81.26
2019-01-20T00:09:14.484Z,81.49
2019-01-20T00:11:46.343Z,81.17
2019-01-20T00:14:20.303Z,81.35
2019-01-20T00:16:51.275Z,81.19
2019-01-20T00:19:25.218Z,81.41
2019-01-20T00:21:56.165Z,81.50
2019-01-20T00:24:28.662Z,81.28
2019-01-20T00:26:59.691Z,81.37
2019-01-20T00:29:33.371Z,81.73
2019-01-20T00:32:07.390Z,81.04
2019-01-20T00:34:38.437Z,81.15
2019-01-20T00:37:11.369Z,81.12
2019-01-20T00:39:42.460Z,81.38
2019-01-20T00:42:13.938Z,81.47
2019-01-20T00:44:45.130Z,80.97
2019-01-20T00:47:16.112Z,80.79
2019-01-20T00:49:50.306Z,80.48
2019-01-20T00:52:24.075Z,80.88
2019-01-20T00:55:15.853Z,80.93
2019-01-20T00:57:52.722Z,81.06
2019-01-20T01:00:32.084Z,80.84
2019-01-20T01:03:04.526Z,81.30
2019-01-20T01:05:39.062Z,80.73
2019-01-20T01:08:11.470Z,80.02
2019-01-20T01:10:42.505Z,80.23
2019-01-20T01:13:15.800Z,79.98
2019-01-20T01:15:49.711Z,80.16
2019-01-20T01:18:20.567Z,79.95
2019-01-20T01:20:54.541Z,80.48
2019-01-20T01:23:27.794Z,80.23
2019-01-20T01:26:02.341Z,79.37
2019-01-20T01:28:33.253Z,79.63
2019-01-20T01:31:04.625Z,79.78
2019-01-20T01:33:35.526Z,80.12
2019-01-20T01:36:08.461Z,80.44
2019-01-20T01:38:39.229Z,81.04
2019-01-20T01:41:10.372Z,80.98
2019-01-20T01:43:44.609Z,80.35
2019-01-20T01:46:18.270Z,80.05
2019-01-20T01:48:49.018Z,80.38
2019-01-20T01:51:20.213Z,79.93
2019-01-20T01:53:51.088Z,79.33
2019-01-20T01:56:24.244Z,78.81
2019-01-20T01:58:55.441Z,79.46
2019-01-20T02:01:27.272Z,79.85
2019-01-20T02:03:59.850Z,79.45
2019-01-20T02:06:31.580Z,79.82
2019-01-20T02:09:07.909Z,79.85
2019-01-20T02:11:46.980Z,79.98
2019-01-20T02:14:16.600Z,80.09
2019-01-20T02:16:48.587Z,79.83
2019-01-20T02:19:21.967Z,79.25
2019-01-20T02:21:53.881Z,79.68
2019-01-20T02:24:24.693Z,79.60
2019-01-20T02:26:55.567Z,79.50
2019-01-20T02:29:26.533Z,79.80
2019-01-20T02:31:58.092Z,79.64
2019-01-20T02:34:29.119Z,79.15
2019-01-20T02:37:03.082Z,78.74
2019-01-20T02:39:35.833Z,79.02
2019-01-20T02:42:07.657Z,79.54
2019-01-20T02:44:38.831Z,79.38
2019-01-20T02:47:09.742Z,79.02
2019-01-20T02:49:40.658Z,79.58
2019-01-20T02:52:21.413Z,79.96
2019-01-20T02:54:53.805Z,78.85
2019-01-20T02:57:24.705Z,79.04
2019-01-20T02:59:58.958Z,78.79
2019-01-20T03:02:30.099Z,78.99
2019-01-20T03:05:01.442Z,79.24
2019-01-20T03:07:32.270Z,79.88
2019-01-20T03:10:09.702Z,79.58
2019-01-20T03:12:49.363Z,80.18
2019-01-20T03:15:20.199Z,79.24
2019-01-20T03:17:51.503Z,79.71
2019-01-20T03:20:29.105Z,80.42
2019-01-20T03:23:00.788Z,80.42
2019-01-20T03:25:34.083Z,80.13
2019-01-20T03:28:07.619Z,80.20
2019-01-20T03:30:40.281Z,80.78
2019-01-20T03:33:13.235Z,79.62
2019-01-20T03:35:44.613Z,79.61
2019-01-20T03:38:15.487Z,80.84
2019-01-20T03:40:46.616Z,80.81
2019-01-20T03:43:22.688Z,80.81
2019-01-20T03:45:57.062Z,80.19
2019-01-20T03:48:27.940Z,80.05
2019-01-20T03:50:59.921Z,79.77
2019-01-20T03:53:30.673Z,79.66
2019-01-20T03:56:04.035Z,79.16
2019-01-20T03:58:34.832Z,79.32
2019-01-20T04:01:09.988Z,79.50
2019-01-20T04:03:41.484Z,80.13
2019-01-20T04:06:16.039Z,80.14
2019-01-20T04:08:47.665Z,80.43
2019-01-20T04:11:19.949Z,80.65
2019-01-20T04:13:51.012Z,80.57
2019-01-20T04:16:23.682Z,80.58
2019-01-20T04:18:56.311Z,79.60
2019-01-20T04:21:27.467Z,79.32
2019-01-20T04:23:58.433Z,79.58
2019-01-20T04:26:29.343Z,79.38
2019-01-20T04:29:02.618Z,79.49
2019-01-20T04:31:36.384Z,78.75
2019-01-20T04:34:07.462Z,79.21
2019-01-20T04:36:38.605Z,79.59
2019-01-20T04:39:09.882Z,79.13
2019-01-20T04:41:41.749Z,78.97
2019-01-20T04:44:16.018Z,79.55
2019-01-20T04:46:46.910Z,79.07
2019-01-20T04:49:19.152Z,79.40
2019-01-20T04:51:50.201Z,80.06
2019-01-20T04:54:22.966Z,79.43
2019-01-20T04:56:53.941Z,79.83
2019-01-20T04:59:24.782Z,80.22
2019-01-20T05:01:56.133Z,79.46
2019-01-20T05:04:29.049Z,79.21
2019-01-20T05:06:59.899Z,79.17
2019-01-20T05:09:31.990Z,79.32
2019-01-20T05:12:03.373Z,79.86
2019-01-20T05:14:35.943Z,80.01
2019-01-20T05:17:06.760Z,79.37
2019-01-20T05:19:40.087Z,79.14
2019-01-20T05:22:11.030Z,79.33
2019-01-20T05:24:43.998Z,78.86
2019-01-20T05:27:17.547Z,78.82
2019-01-20T05:29:48.446Z,78.69
2019-01-20T05:32:19.223Z,78.85
2019-01-20T05:34:50.721Z,79.02
2019-01-20T05:37:21.661Z,78.80
2019-01-20T05:39:56.490Z,78.68
2019-01-20T05:42:29.475Z,78.63
2019-01-20T05:45:02.933Z,78.43
2019-01-20T05:47:36.792Z,78.25
2019-01-20T05:50:12.191Z,77.97
2019-01-20T05:52:44.198Z,78.27
2019-01-20T05:55:15.117Z,78.19
2019-01-20T05:57:48.658Z,78.36
2019-01-20T06:00:27.660Z,78.26
2019-01-20T06:02:58.524Z,78.02
2019-01-20T06:05:31.700Z,78.39
2019-01-20T06:08:05.205Z,78.52
2019-01-20T06:10:36.241Z,78.52
2019-01-20T06:13:07.181Z,77.92
2019-01-20T06:15:38.521Z,77.67
2019-01-20T06:18:10.829Z,77.65
2019-01-20T06:20:41.913Z,77.64
2019-01-20T06:23:13.128Z,78.32
2019-01-20T06:25:44.801Z,78.42
2019-01-20T06:28:16.002Z,78.36
2019-01-20T06:30:50.616Z,78.32
2019-01-20T06:33:21.720Z,78.00
2019-01-20T06:35:52.920Z,78.16
2019-01-20T06:38:27.103Z,78.29
2019-01-20T06:41:01.555Z,78.31
2019-01-20T06:43:38.355Z,78.60
2019-01-20T06:46:10.228Z,78.37
2019-01-20T06:48:41.074Z,78.41
2019-01-20T06:51:11.963Z,78.03
2019-01-20T06:53:44.317Z,78.08
2019-01-20T06:56:16.889Z,77.90
2019-01-20T06:58:52.543Z,78.23
2019-01-20T07:01:23.369Z,78.03
2019-01-20T07:03:54.199Z,78.44
2019-01-20T07:06:26.547Z,79.14
2019-01-20T07:08:57.466Z,78.66
2019-01-20T07:11:28.399Z,79.30
2019-01-20T07:14:02.280Z,79.64
2019-01-20T07:16:36.543Z,79.99
2019-01-20T07:19:07.334Z,80.01
2019-01-20T07:21:40.705Z,79.48
2019-01-20T07:24:14.333Z,79.46
2019-01-20T07:26:45.191Z,79.92
2019-01-20T07:29:16.321Z,82.06
2019-01-20T07:31:48.496Z,81.16
2019-01-20T07:34:20.352Z,80.76
2019-01-20T07:37:00.431Z,80.30
2019-01-20T07:39:31.565Z,81.18
2019-01-20T07:42:02.670Z,80.75
2019-01-20T07:44:38.774Z,79.96
2019-01-20T07:47:10.416Z,80.08
2019-01-20T07:49:43.172Z,80.42
2019-01-20T07:52:17.289Z,81.03
2019-01-20T07:54:55.720Z,80.91
2019-01-20T07:57:29.372Z,80.72
2019-01-20T08:00:05.225Z,80.50
2019-01-20T08:02:36.116Z,80.65
2019-01-20T08:05:10.226Z,80.82
2019-01-20T08:07:43.252Z,80.87
2019-01-20T08:10:16.621Z,80.98
2019-01-20T08:12:47.819Z,80.97
2019-01-20T08:15:24.460Z,81.19
2019-01-20T08:17:55.858Z,81.51
2019-01-20T08:20:29.327Z,81.79
2019-01-20T08:23:00.189Z,81.93
2019-01-20T08:25:35.751Z,82.29
2019-01-20T08:28:07.713Z,82.08
2019-01-20T08:30:39.477Z,82.15
2019-01-20T08:33:10.733Z,81.88
2019-01-20T08:35:42.591Z,82.09
2019-01-20T08:38:13.421Z,82.27
2019-01-20T08:40:52.608Z,81.76
2019-01-20T08:43:31.723Z,82.06
2019-01-20T08:46:42.538Z,81.38
2019-01-20T08:49:15.249Z,81.91
2019-01-20T08:51:46.564Z,81.65
2019-01-20T08:54:23.242Z,82.48
2019-01-20T08:56:55.475Z,82.82
2019-01-20T08:59:28.129Z,82.80
2019-01-20T09:02:01.576Z,81.57
2019-01-20T09:04:45.574Z,81.20
2019-01-20T09:07:16.887Z,80.72
2019-01-20T09:09:49.011Z,80.86
2019-01-20T09:12:34.568Z,80.82
2019-01-20T09:15:11.069Z,81.18
2019-01-20T09:17:41.886Z,82.45
2019-01-20T09:20:12.978Z,80.77
2019-01-20T09:22:46.085Z,80.00
2019-01-20T09:25:17.244Z,79.38
2019-01-20T09:27:48.259Z,79.96
2019-01-20T09:30:21.078Z,79.84
2019-01-20T09:32:53.487Z,78.55
2019-01-20T09:35:27.433Z,78.30
2019-01-20T09:37:58.796Z,78.74
2019-01-20T09:40:32.280Z,77.57
2019-01-20T09:43:04.588Z,77.32
2019-01-20T09:45:37.437Z,76.90
2019-01-20T09:48:08.416Z,77.07
2019-01-20T09:51:26.273Z,76.57
2019-01-20T09:54:04.765Z,77.31
2019-01-20T09:56:35.993Z,76.73
2019-01-20T09:59:09.614Z,78.17
2019-01-20T10:02:01.446Z,77.53
2019-01-20T10:04:35.284Z,78.27
2019-01-20T10:07:06.106Z,77.52
2019-01-20T10:09:37.481Z,77.12
2019-01-20T10:12:13.495Z,77.24
2019-01-20T10:14:44.687Z,76.85
2019-01-20T10:17:16.932Z,76.86
2019-01-20T10:19:47.762Z,75.98
2019-01-20T10:22:23.630Z,75.14
2019-01-20T10:25:03.358Z,74.58
2019-01-20T10:27:37.098Z,74.25
2019-01-20T10:30:28.625Z,73.33
2019-01-20T10:33:05.418Z,73.18
2019-01-20T10:36:14.699Z,72.17
2019-01-20T10:38:58.370Z,71.81
2019-01-20T10:41:30.986Z,71.85
2019-01-20T10:44:06.827Z,71.67
2019-01-20T10:46:42.168Z,71.84
2019-01-20T10:49:18.815Z,71.46
2019-01-20T10:51:54.463Z,71.26
2019-01-20T10:54:29.628Z,71.34
2019-01-20T10:57:01.357Z,71.06
2019-01-20T10:59:38.681Z,70.48
2019-01-20T11:02:17.346Z,70.35
2019-01-20T11:04:57.270Z,70.91
2019-01-20T11:07:25.611Z,70.45
2019-01-20T11:09:56.608Z,70.01
2019-01-20T11:12:27.810Z,69.02
2019-01-20T11:15:01.922Z,69.84
2019-01-20T11:17:36.890Z,69.43
2019-01-20T11:20:14.623Z,70.11
2019-01-20T11:22:45.417Z,70.19
2019-01-20T11:25:32.527Z,71.15
2019-01-20T11:28:06.247Z,72.69
2019-01-20T11:30:38.126Z,73.78
2019-01-20T11:33:16.551Z,73.53
2019-01-20T11:35:51.331Z,74.90
2019-01-20T11:38:22.179Z,74.30
2019-01-20T11:40:53.452Z,73.56
2019-01-20T11:43:26.987Z,73.56
2019-01-20T11:45:58.234Z,73.59
2019-01-20T11:48:33.223Z,74.36
2019-01-20T11:51:08.074Z,74.68
2019-01-20T11:53:40.455Z,74.64
2019-01-20T11:56:13.859Z,74.93
2019-01-20T11:58:46.709Z,74.97
2019-01-20T12:01:23.620Z,74.69
2019-01-20T12:04:01.026Z,75.80
2019-01-20T12:06:35.670Z,75.07
2019-01-20T12:09:23.892Z,74.16
2019-01-20T12:11:58.899Z,74.59
2019-01-20T12:14:29.739Z,75.33
2019-01-20T12:17:03.590Z,73.92
2019-01-20T12:19:34.445Z,74.71
2019-01-20T12:22:05.265Z,74.93
2019-01-20T12:24:38.247Z,74.84
2019-01-20T12:27:12.398Z,74.93
2019-01-20T12:29:52.153Z,73.44
2019-01-20T12:32:31.201Z,74.54
2019-01-20T12:35:05.987Z,73.28
2019-01-20T12:37:36.829Z,73.74
2019-01-20T12:40:11.446Z,73.96
2019-01-20T12:42:43.897Z,73.88
2019-01-20T12:45:15.306Z,74.13
2019-01-20T12:47:46.353Z,73.80
2019-01-20T12:50:19.637Z,73.53
2019-01-20T12:52:54.268Z,72.41
2019-01-20T12:55:25.972Z,71.97
2019-01-20T12:58:03.873Z,72.53
2019-01-20T13:00:45.090Z,72.53
2019-01-20T13:03:24.848Z,72.24
2019-01-20T13:06:03.321Z,72.99
2019-01-20T13:08:38.058Z,73.09
2019-01-20T13:11:09.276Z,73.03
2019-01-20T13:13:42.302Z,72.14
2019-01-20T13:16:13.092Z,72.34
2019-01-20T13:18:46.701Z,72.77
2019-01-20T13:21:27.145Z,72.43
2019-01-20T13:24:07.908Z,73.55
2019-01-20T13:26:40.305Z,73.22
2019-01-20T13:29:11.275Z,73.18
2019-01-20T13:31:54.826Z,74.00
2019-01-20T13:34:26.124Z,74.90
2019-01-20T13:37:07.479Z,74.36
2019-01-20T13:39:41.810Z,74.89
2019-01-20T13:42:13.321Z,74.89
2019-01-20T13:44:51.835Z,75.47
2019-01-20T13:47:23.020Z,75.35
2019-01-20T13:49:54.043Z,75.85
2019-01-20T13:52:27.428Z,74.86
2019-01-20T13:55:12.922Z,75.73
2019-01-20T13:57:45.444Z,74.98
2019-01-20T14:00:32.180Z,75.41
2019-01-20T14:03:03.048Z,76.01
2019-01-20T14:05:35.736Z,75.74
2019-01-20T14:08:09.962Z,76.24
2019-01-20T14:10:44.899Z,76.84
2019-01-20T14:13:16.287Z,76.37
2019-01-20T14:15:48.468Z,75.87
2019-01-20T14:18:19.446Z,76.73
2019-01-20T14:20:51.382Z,77.05
2019-01-20T14:23:24.316Z,77.12
2019-01-20T14:25:55.312Z,77.18
2019-01-20T14:28:26.470Z,76.26
2019-01-20T14:30:59.118Z,76.25
2019-01-20T14:33:31.690Z,76.96
2019-01-20T14:36:03.839Z,77.08
2019-01-20T14:38:38.063Z,75.71
2019-01-20T14:41:22.672Z,75.46
2019-01-20T14:43:56.030Z,75.95
2019-01-20T14:46:30.045Z,76.84
2019-01-20T14:49:17.891Z,75.42
2019-01-20T14:51:52.365Z,76.06
2019-01-20T14:54:28.994Z,77.26
2019-01-20T14:57:06.450Z,77.38
2019-01-20T14:59:37.221Z,77.93
2019-01-20T15:02:15.422Z,77.38
2019-01-20T15:04:46.617Z,77.85
2019-01-20T15:07:18.057Z,77.41
2019-01-20T15:09:49.161Z,77.29
2019-01-20T15:12:20.737Z,77.43
2019-01-20T15:14:51.542Z,77.37
2019-01-20T15:17:24.029Z,77.91
2019-01-20T15:19:57.955Z,78.66
2019-01-20T15:22:40.077Z,79.34
2019-01-20T15:25:14.972Z,79.01
2019-01-20T15:27:58.418Z,78.19
2019-01-20T15:30:31.425Z,79.31
2019-01-20T15:33:07.614Z,79.57
2019-01-20T15:35:41.753Z,79.34
2019-01-20T15:38:15.480Z,79.50
2019-01-20T15:40:46.866Z,79.26
2019-01-20T15:43:21.447Z,80.41
2019-01-20T15:45:52.456Z,79.79
2019-01-20T15:48:29.970Z,79.72
2019-01-20T15:51:05.956Z,79.85
2019-01-20T15:53:38.703Z,79.99
2019-01-20T15:56:13.191Z,80.53
2019-01-20T16:01:57.454Z,80.90
2019-01-20T16:04:28.291Z,81.56
2019-01-20T16:07:02.523Z,81.76
2019-01-20T16:09:38.537Z,81.74
2019-01-20T16:12:10.387Z,81.96
2019-01-20T16:14:41.677Z,82.47
2019-01-20T16:17:15.581Z,83.11
2019-01-20T16:19:56.590Z,83.66
2019-01-20T16:22:30.524Z,83.99
2019-01-20T16:25:13.282Z,83.46
2019-01-20T16:27:48.629Z,84.13
2019-01-20T16:30:22.726Z,84.41
2019-01-20T16:32:57.179Z,84.33
2019-01-20T16:35:28.371Z,84.36
2019-01-20T16:38:06.872Z,84.61
2019-01-20T16:40:44.650Z,84.07
2019-01-20T16:43:15.950Z,84.45
2019-01-20T16:45:48.519Z,85.14
2019-01-20T16:48:29.595Z,84.86
2019-01-20T16:51:08.561Z,84.25
2019-01-20T16:53:44.879Z,84.68
2019-01-20T16:56:15.996Z,84.45
2019-01-20T16:58:51.409Z,84.97
2019-01-20T17:01:24.514Z,85.14
2019-01-20T17:03:58.296Z,84.89
2019-01-20T17:06:31.537Z,84.90
2019-01-20T17:09:21.928Z,85.24
2019-01-20T17:11:54.938Z,85.06
2019-01-20T17:14:28.062Z,84.96
2019-01-20T17:16:59.437Z,85.80
2019-01-20T17:19:33.279Z,86.25
2019-01-20T17:22:06.315Z,86.50
2019-01-20T17:24:44.286Z,86.35
2019-01-20T17:27:15.208Z,86.88
2019-01-20T17:29:46.414Z,86.54
2019-01-20T17:32:17.385Z,87.25
2019-01-20T17:34:52.593Z,85.76
2019-01-20T17:37:27.493Z,86.11
2019-01-20T17:40:03.188Z,86.03
2019-01-20T17:42:41.510Z,85.70
2019-01-20T17:45:19.739Z,85.19
2019-01-20T17:47:50.890Z,84.91
2019-01-20T17:50:28.491Z,85.54
2019-01-20T17:52:59.394Z,85.66
2019-01-20T17:55:30.316Z,85.87
2019-01-20T17:58:18.842Z,86.51
2019-01-20T18:00:52.858Z,86.67
2019-01-20T18:03:24.044Z,86.90
2019-01-20T18:05:59.391Z,87.29
2019-01-20T18:08:30.232Z,87.24
2019-01-20T18:11:07.035Z,86.55
2019-01-20T18:13:43.368Z,87.00
2019-01-20T18:16:14.491Z,86.81
2019-01-20T18:18:53.240Z,87.20
2019-01-20T18:21:27.067Z,86.35
2019-01-20T18:23:59.843Z,85.88
2019-01-20T18:26:31.510Z,85.47
2019-01-20T18:29:10.527Z,85.37
2019-01-20T18:31:41.896Z,85.72
2019-01-20T18:34:13.372Z,85.29
2019-01-20T18:36:45.628Z,83.95
2019-01-20T18:39:23.876Z,84.17
2019-01-20T18:42:01.310Z,85.13
2019-01-20T18:44:35.604Z,85.31
2019-01-20T18:47:06.616Z,86.15
2019-01-20T18:49:40.616Z,86.75
2019-01-20T18:52:13.313Z,86.31
2019-01-20T18:54:44.851Z,86.37
2019-01-20T18:57:19.103Z,84.69
2019-01-20T18:59:51.408Z,84.91
2019-01-20T19:02:27.765Z,85.08
2019-01-20T19:05:00.230Z,84.84
2019-01-20T19:07:33.318Z,85.04
2019-01-20T19:10:06.401Z,85.57
2019-01-20T19:12:40.721Z,85.32
2019-01-20T19:15:15.004Z,85.14
2019-01-20T19:17:48.055Z,84.52
2019-01-20T19:20:26.844Z,85.28
2019-01-20T19:22:58.058Z,85.80
2019-01-20T19:25:28.883Z,86.70
2019-01-20T19:27:59.921Z,86.91
2019-01-20T19:30:32.913Z,86.90
2019-01-20T19:33:04.541Z,86.48
2019-01-20T19:35:35.500Z,86.36
2019-01-20T19:38:08.001Z,86.35
2019-01-20T19:40:41.297Z,85.90
2019-01-20T19:43:13.697Z,86.68
2019-01-20T19:45:48.859Z,87.13
2019-01-20T19:48:22.380Z,87.40
2019-01-20T19:50:53.488Z,86.93
2019-01-20T19:53:27.551Z,86.09
2019-01-20T19:56:01.894Z,86.44
2019-01-20T19:58:50.951Z,86.17
2019-01-20T20:01:22.294Z,85.65
2019-01-20T20:03:56.449Z,85.84
2019-01-20T20:06:30.819Z,86.29
2019-01-20T20:09:07.190Z,87.05
2019-01-20T20:11:52.079Z,87.79
2019-01-20T20:14:29.179Z,87.29
2019-01-20T20:17:00.263Z,86.74
2019-01-20T20:19:32.709Z,86.05
2019-01-20T20:22:06.281Z,86.50
2019-01-20T20:24:50.570Z,86.91
2019-01-20T20:27:24.543Z,86.38
2019-01-20T20:29:57.559Z,86.68
2019-01-20T20:32:29.386Z,87.23
2019-01-20T20:35:05.718Z,87.80
2019-01-20T20:38:01.729Z,87.79
2019-01-20T20:40:39.463Z,86.63
2019-01-20T20:43:13.115Z,85.82
2019-01-20T20:45:47.562Z,86.10
2019-01-20T20:48:28.833Z,86.53
2019-01-20T20:51:05.292Z,86.76
2019-01-20T20:53:36.964Z,86.57
2019-01-20T20:56:10.803Z,86.03
2019-01-20T20:58:44.973Z,86.01
2019-01-20T21:01:15.994Z,85.06
2019-01-20T21:03:47.425Z,85.18
2019-01-20T21:06:21.661Z,84.10
2019-01-20T21:08:53.712Z,84.30
2019-01-20T21:11:24.598Z,83.69
2019-01-20T21:13:55.719Z,84.46
2019-01-20T21:16:27.574Z,84.55
2019-01-20T21:19:08.833Z,84.15
2019-01-20T21:21:39.667Z,85.06
2019-01-20T21:24:16.474Z,85.06
2019-01-20T21:26:48.678Z,84.09
2019-01-20T21:29:19.716Z,84.08
2019-01-20T21:31:51.445Z,85.01
2019-01-20T21:34:22.465Z,84.83
2019-01-20T21:37:01.720Z,84.45
2019-01-20T21:39:32.549Z,83.08
2019-01-20T21:42:03.774Z,84.14
2019-01-20T21:44:37.916Z,84.69
2019-01-20T21:47:10.248Z,83.79
2019-01-20T21:49:42.963Z,84.02
2019-01-20T21:52:13.765Z,83.96
2019-01-20T21:54:48.566Z,84.07
2019-01-20T21:57:18.943Z,84.20
2019-01-20T21:59:49.858Z,84.00
2019-01-20T22:02:23.822Z,84.36
2019-01-20T22:04:54.574Z,84.18
2019-01-20T22:07:25.692Z,83.93
2019-01-20T22:09:59.398Z,84.16
2019-01-20T22:12:32.340Z,85.01
2019-01-20T22:15:04.101Z,85.57
2019-01-20T22:17:35.921Z,85.65
2019-01-20T22:20:07.817Z,85.68
2019-01-20T22:22:42.174Z,85.08
2019-01-20T22:25:13.686Z,85.57
2019-01-20T22:27:46.358Z,86.75
2019-01-20T22:30:22.936Z,85.98
2019-01-20T22:32:55.432Z,85.78
2019-01-20T22:35:35.505Z,85.37
2019-01-20T22:38:09.336Z,84.50
2019-01-20T22:40:40.189Z,83.92
2019-01-20T22:43:12.698Z,83.95
2019-01-20T22:45:45.348Z,83.02
2019-01-20T22:48:16.372Z,82.98
2019-01-20T22:50:54.624Z,83.08
2019-01-20T22:53:30.004Z,83.65
2019-01-20T22:56:01.047Z,84.31
2019-01-20T22:58:32.411Z,83.86
2019-01-20T23:01:16.376Z,84.03
2019-01-20T23:03:47.280Z,84.35
2019-01-20T23:06:19.503Z,84.71
2019-01-20T23:08:52.959Z,84.47
2019-01-20T23:11:23.759Z,84.49
2019-01-20T23:13:54.544Z,84.49
2019-01-20T23:16:28.477Z,84.54
2019-01-20T23:19:02.113Z,84.89
2019-01-20T23:21:35.125Z,86.44
2019-01-20T23:24:10.912Z,86.54
2019-01-20T23:26:42.622Z,86.48
2019-01-20T23:29:22.349Z,86.58
2019-01-20T23:32:01.102Z,86.17
2019-01-20T23:34:31.971Z,86.65
2019-01-20T23:37:04.193Z,87.44
2019-01-20T23:39:39.270Z,87.59
2019-01-20T23:42:13.873Z,87.84
2019-01-20T23:44:45.926Z,87.78
2019-01-20T23:47:17.298Z,87.99
2019-01-20T23:49:48.435Z,87.11
2019-01-20T23:52:19.604Z,87.51
2019-01-20T23:54:51.739Z,88.02
2019-01-20T23:57:22.728Z,88.54
2019-01-20T23:59:56.691Z,86.52
